Time;durP1;ratioP1;P1;durP2;ratioP2;P2;SDS_P1;SDS_P2;PMS_P1;PMS_P2;Temp;Humidity;BMP_temperature;BMP_pressure;BME280_temperature;BME280_humidity;BME280_pressure;Samples;Min_cycle;Max_cycle;Signal;HPM_P1;HPM_P2
2022/09/30 00:01:04;;;;;;;9.05;1.02;;;;;;;19.17;55.46;99751.63;5041827;28;20086;-79
2022/09/30 00:03:31;;;;;;;4.10;1.00;;;;;;;20.07;55.59;99875.47;5058077;28;20056;-79
2022/09/30 00:06:00;;;;;;;2.38;0.93;;;;;;;19.39;55.54;99779.06;5043134;28;20075;-79
2022/09/30 00:08:35;;;;;;;9.25;1.67;;;;;;;19.84;55.56;99867.94;5041363;28;20067;-80
2022/09/30 00:11:07;;;;;;;2.08;0.85;;;;;;;19.94;55.99;99883.63;5040545;28;20056;-80
2022/09/30 00:13:36;;;;;;;4.93;0.90;;;;;;;19.88;55.84;99890.72;5041774;28;20536;-79
2022/09/30 00:16:04;;;;;;;3.38;1.23;;;;;;;19.94;56.22;99900.63;5041372;28;20467;-79
2022/09/30 00:18:31;;;;;;;3.17;0.70;;;;;;;19.82;56.29;99881.63;5042855;28;20184;-79
2022/09/30 00:20:58;;;;;;;3.65;0.70;;;;;;;19.62;56.39;99846.66;5042236;28;20061;-79
2022/09/30 00:23:25;;;;;;;5.50;1.00;;;;;;;20.01;56.81;99905.97;5040193;28;20151;-78
2022/09/30 00:25:57;;;;;;;10.43;1.20;;;;;;;19.69;57.26;99857.44;5038046;28;20498;-79
2022/09/30 00:28:24;;;;;;;1.83;0.80;;;;;;;19.89;57.38;99894.22;5036513;28;20051;-79
2022/09/30 00:30:50;;;;;;;1.77;0.65;;;;;;;19.75;57.70;99888.91;5039185;28;20838;-79
2022/09/30 00:33:17;;;;;;;4.20;0.60;;;;;;;19.82;57.84;99892.38;5038546;28;20052;-80
2022/09/30 00:35:44;;;;;;;2.88;1.10;;;;;;;19.70;58.13;99867.16;5037895;28;20056;-79
2022/09/30 00:38:10;;;;;;;6.32;0.90;;;;;;;19.73;58.33;99882.88;5038400;28;20040;-79
2022/09/30 00:40:38;;;;;;;4.05;1.08;;;;;;;19.16;58.60;99809.19;5037589;28;20050;-79
2022/09/30 00:43:16;;;;;;;4.40;0.60;;;;;;;19.71;58.96;99905.69;5038455;28;20048;-79
2022/09/30 00:45:52;;;;;;;2.38;0.90;;;;;;;19.55;59.56;99901.59;5037581;28;20539;-79
2022/09/30 00:48:38;;;;;;;1.55;0.70;;;;;;;19.42;60.39;99905.97;5037744;28;20380;-78
2022/09/30 00:51:06;;;;;;;1.13;0.60;;;;;;;19.48;60.57;99925.81;5038285;28;20048;-78
2022/09/30 00:53:38;;;;;;;3.95;0.75;;;;;;;19.54;60.46;99926.84;5042878;28;20474;-79
2022/09/30 00:56:16;;;;;;;2.90;0.90;;;;;;;19.63;60.05;99912.09;5047589;28;20040;-79
2022/09/30 00:58:54;;;;;;;2.38;0.70;;;;;;;19.58;60.39;99926.19;5037909;28;20051;-78
2022/09/30 01:01:22;;;;;;;2.33;0.57;;;;;;;19.67;59.63;99886.41;5039737;28;20078;-79
2022/09/30 01:04:19;;;;;;;2.40;0.57;;;;;;;19.72;60.34;99921.63;5045974;28;20549;-80
2022/09/30 01:06:47;;;;;;;3.55;0.77;;;;;;;19.49;60.09;99872.81;5046656;28;20060;-79
2022/09/30 01:09:14;;;;;;;0.88;0.50;;;;;;;19.52;60.94;99899.31;5048098;28;20063;-80
2022/09/30 01:11:40;;;;;;;2.00;0.80;;;;;;;19.57;61.09;99918.34;5045896;28;20129;-79
2022/09/30 01:14:13;;;;;;;1.50;0.50;;;;;;;19.58;60.46;99903.84;5045538;28;20049;-82
2022/09/30 01:16:48;;;;;;;2.10;0.40;;;;;;;19.67;60.07;99921.44;5063099;28;20552;-81
2022/09/30 01:19:21;;;;;;;3.17;0.68;;;;;;;19.41;60.89;99933.91;5063340;28;20060;-80
2022/09/30 01:22:06;;;;;;;1.92;0.73;;;;;;;19.34;61.19;99930.41;5062573;28;20052;-80
2022/09/30 01:24:41;;;;;;;1.55;0.70;;;;;;;19.35;60.76;99931.25;5067020;28;20257;-80
2022/09/30 01:27:16;;;;;;;2.35;0.70;;;;;;;19.48;60.35;99930.38;5071566;28;20056;-81
2022/09/30 01:30:02;;;;;;;2.35;0.77;;;;;;;19.41;60.31;99931.22;5058588;28;20326;-81
2022/09/30 01:32:44;;;;;;;0.95;0.40;;;;;;;19.19;60.67;99938.72;5068352;28;20051;-82
2022/09/30 01:35:48;;;;;;;3.60;0.82;;;;;;;19.02;61.03;99920.53;5046803;28;20059;-80
2022/09/30 01:38:23;;;;;;;1.27;0.55;;;;;;;18.52;60.13;99824.97;5063459;28;20064;-78
2022/09/30 01:41:04;;;;;;;1.27;0.47;;;;;;;19.24;60.13;99931.88;5045362;28;20522;-82
2022/09/30 01:43:53;;;;;;;3.28;0.70;;;;;;;19.16;60.40;99933.75;5045726;28;20044;-82
2022/09/30 01:46:31;;;;;;;1.25;0.60;;;;;;;19.12;60.61;99942.44;5045553;28;20525;-80
2022/09/30 01:49:11;;;;;;;4.80;0.93;;;;;;;18.96;60.66;99931.09;5047939;28;20477;-80
2022/09/30 01:51:52;;;;;;;2.55;0.40;;;;;;;18.92;60.37;99911.00;5046142;28;20480;-82
2022/09/30 01:54:30;;;;;;;1.33;0.60;;;;;;;19.25;60.24;99957.75;5048110;28;20084;-80
2022/09/30 01:57:06;;;;;;;0.77;0.50;;;;;;;19.26;59.74;99944.09;5047712;28;20052;-80
2022/09/30 01:59:40;;;;;;;1.05;0.40;;;;;;;19.33;59.34;99950.28;5046008;28;20632;-81
2022/09/30 02:02:18;;;;;;;1.40;0.50;;;;;;;19.21;59.53;99962.72;5062589;28;20053;-81
2022/09/30 02:04:56;;;;;;;0.68;0.40;;;;;;;19.16;58.58;99925.69;5062175;28;20225;-81
2022/09/30 02:07:30;;;;;;;0.85;0.30;;;;;;;19.21;58.88;99951.97;5062027;28;20056;-80
2022/09/30 02:10:19;;;;;;;1.58;0.40;;;;;;;19.32;58.60;99962.09;5047783;28;20520;-82
2022/09/30 02:12:52;;;;;;;0.50;0.40;;;;;;;19.05;58.56;99917.41;5045362;28;20044;-80
2022/09/30 02:15:22;;;;;;;2.67;0.40;;;;;;;19.07;58.25;99939.56;5045717;28;20049;-81
2022/09/30 02:17:57;;;;;;;1.17;0.47;;;;;;;19.24;58.36;99956.91;5045528;28;20884;-81
2022/09/30 02:20:28;;;;;;;3.00;0.70;;;;;;;18.65;59.00;99888.66;5061221;28;20053;-80
2022/09/30 02:23:24;;;;;;;1.63;0.57;;;;;;;18.86;58.33;99895.72;5045727;28;20124;-81
2022/09/30 02:26:04;;;;;;;1.20;0.47;;;;;;;19.05;58.62;99936.25;5046156;28;20048;-82
2022/09/30 02:28:33;;;;;;;1.48;0.50;;;;;;;19.12;59.10;99961.28;5062334;28;20048;-81
2022/09/30 02:31:02;;;;;;;1.30;0.68;;;;;;;19.07;58.47;99929.63;5062284;28;20074;-80
2022/09/30 02:33:38;;;;;;;0.93;0.47;;;;;;;19.15;58.08;99948.25;5045576;28;20059;-81
2022/09/30 02:36:11;;;;;;;3.10;0.55;;;;;;;19.19;58.17;99951.34;5046592;28;20564;-80
2022/09/30 02:38:43;;;;;;;3.42;0.50;;;;;;;19.39;57.45;99959.38;5041724;28;20456;-82
2022/09/30 02:41:35;;;;;;;1.42;0.60;;;;;;;19.34;57.31;99946.56;5041727;28;20755;-80
2022/09/30 02:44:02;;;;;;;1.50;0.82;;;;;;;19.25;57.68;99955.91;5027757;28;20266;-80
2022/09/30 02:46:40;;;;;;;0.95;0.43;;;;;;;19.31;57.57;99952.34;5041747;28;20518;-81
2022/09/30 02:49:17;;;;;;;1.42;0.52;;;;;;;19.19;57.96;99945.97;5027331;28;20508;-80
2022/09/30 02:52:10;;;;;;;1.73;0.60;;;;;;;19.14;57.15;99925.06;5041837;28;20572;-80
2022/09/30 02:55:04;;;;;;;1.80;0.50;;;;;;;19.35;56.98;99952.78;5045358;28;20064;-80
2022/09/30 02:57:46;;;;;;;1.13;0.40;;;;;;;18.92;56.87;99886.81;5029913;28;20088;-79
2022/09/30 03:00:13;;;;;;;;;;;;;;;19.17;56.94;99954.22;5046078;28;20265;-80
2022/09/30 03:02:40;;;;;;;1.45;0.70;;;;;;;19.09;56.39;99915.97;5045084;28;19975;-80
2022/09/30 03:05:08;;;;;;;1.15;0.50;;;;;;;19.10;56.54;99931.06;5046827;28;20060;-79
2022/09/30 03:07:36;;;;;;;1.35;0.40;;;;;;;19.06;56.46;99932.53;5030177;28;20155;-80
2022/09/30 03:10:16;;;;;;;5.13;0.77;;;;;;;19.17;56.75;99972.25;5030428;28;20301;-83
2022/09/30 03:13:18;;;;;;;1.25;0.52;;;;;;;19.28;56.20;99968.09;5045069;28;20160;-80
2022/09/30 03:16:04;;;;;;;;;;;;;;;19.18;56.02;99957.78;5044580;28;20234;-80
2022/09/30 03:18:47;;;;;;;3.13;0.63;;;;;;;18.64;56.14;99876.25;5061946;28;20342;-80
2022/09/30 03:21:32;;;;;;;0.75;0.43;;;;;;;19.16;56.48;99966.03;5030679;28;20053;-80
2022/09/30 03:24:37;;;;;;;3.65;1.00;;;;;;;19.10;56.66;99966.03;5045797;28;20569;-80
2022/09/30 03:27:26;;;;;;;2.88;0.77;;;;;;;19.21;56.19;99977.00;5045571;28;20124;-80
2022/09/30 03:30:22;;;;;;;4.75;0.85;;;;;;;19.15;56.33;99977.84;5045231;28;20060;-79
2022/09/30 03:33:07;;;;;;;2.22;0.68;;;;;;;19.10;56.08;99966.88;5029155;28;20149;-80
2022/09/30 03:35:42;;;;;;;1.08;0.75;;;;;;;19.22;56.03;99980.50;5047413;28;20148;-81
2022/09/30 03:38:15;;;;;;;1.45;0.60;;;;;;;19.00;56.60;99972.69;5059416;28;20395;-81
2022/09/30 03:41:07;;;;;;;0.75;0.40;;;;;;;19.06;56.41;99965.63;5063983;28;20088;-81
2022/09/30 03:43:42;;;;;;;;;;;;;;;19.03;56.79;99992.09;5053782;28;20130;-80
2022/09/30 03:46:15;;;;;;;3.80;0.80;;;;;;;19.09;56.86;99993.97;5064843;28;20461;-80
2022/09/30 03:48:47;;;;;;;1.40;0.70;;;;;;;18.83;57.37;99959.81;5049951;28;20044;-82
2022/09/30 03:51:15;;;;;;;1.10;0.60;;;;;;;19.05;57.07;100001.63;5064832;28;20064;-81
2022/09/30 03:53:45;;;;;;;1.40;0.60;;;;;;;18.82;57.13;99975.16;5048402;28;20155;-81
2022/09/30 03:56:13;;;;;;;2.10;0.65;;;;;;;19.08;57.04;100008.44;5054044;28;20105;-82
2022/09/30 03:58:43;;;;;;;1.27;0.47;;;;;;;19.09;56.51;100002.88;5054566;28;20540;-80
2022/09/30 04:01:18;;;;;;;3.90;0.65;;;;;;;19.12;56.79;100007.00;5050458;28;20768;-81
2022/09/30 04:03:51;;;;;;;1.25;0.52;;;;;;;18.69;56.65;99953.56;5050631;28;20056;-79
2022/09/30 04:06:20;;;;;;;2.88;0.73;;;;;;;18.89;56.45;99980.53;5047946;28;20554;-81
2022/09/30 04:08:47;;;;;;;2.88;0.70;;;;;;;18.63;56.19;99919.47;5064995;28;20314;-79
2022/09/30 04:11:14;;;;;;;1.10;0.75;;;;;;;19.05;56.42;100006.19;5048045;28;20414;-81
2022/09/30 04:13:41;;;;;;;2.50;0.80;;;;;;;18.71;56.50;99954.19;5048576;28;20638;-81
2022/09/30 04:16:08;;;;;;;1.52;0.60;;;;;;;19.06;56.57;99997.91;5063318;28;20579;-80
2022/09/30 04:18:37;;;;;;;1.50;0.60;;;;;;;18.98;57.20;100006.16;5064855;28;20323;-80
2022/09/30 04:21:08;;;;;;;1.15;0.65;;;;;;;18.64;56.52;99953.38;5065515;28;20052;-79
2022/09/30 04:23:39;;;;;;;3.85;0.60;;;;;;;19.09;56.55;100018.19;5049455;28;20139;-81
2022/09/30 04:26:10;;;;;;;6.22;0.90;;;;;;;18.72;56.19;99963.94;5046425;28;20609;-79
2022/09/30 04:28:36;;;;;;;3.35;0.80;;;;;;;18.95;56.04;99995.84;5048003;28;20067;-82
2022/09/30 04:31:04;;;;;;;3.97;0.73;;;;;;;18.98;56.17;100007.03;5047467;28;20044;-81
2022/09/30 04:33:31;;;;;;;1.40;0.60;;;;;;;19.10;56.27;100026.06;5048729;28;20544;-81
2022/09/30 04:35:59;;;;;;;4.03;0.98;;;;;;;19.08;56.13;100032.66;5047493;28;20056;-82
2022/09/30 04:38:26;;;;;;;3.45;0.90;;;;;;;19.00;56.50;100026.47;5046934;28;20162;-80
2022/09/30 04:40:56;;;;;;;5.43;0.77;;;;;;;19.06;55.89;100029.38;5045984;28;20059;-81
2022/09/30 04:43:23;;;;;;;2.20;0.70;;;;;;;18.48;56.20;99936.59;5046701;28;20090;-80
2022/09/30 04:45:51;;;;;;;4.97;0.90;;;;;;;18.92;56.46;100007.81;5047490;28;20060;-80
2022/09/30 04:48:20;;;;;;;2.17;0.70;;;;;;;18.71;56.30;99981.09;5046347;28;20088;-81
2022/09/30 04:50:47;;;;;;;0.95;0.73;;;;;;;18.98;56.52;100033.06;5045895;28;20051;-79
2022/09/30 04:53:14;;;;;;;1.77;0.93;;;;;;;19.06;55.76;100029.38;5047055;28;20596;-80
2022/09/30 04:55:42;;;;;;;1.40;0.60;;;;;;;19.18;55.49;100038.50;5047337;28;20399;-80
2022/09/30 04:58:10;;;;;;;4.82;0.90;;;;;;;19.00;55.69;100029.16;5047459;28;20076;-79
2022/09/30 05:00:37;;;;;;;5.03;0.63;;;;;;;18.83;56.24;100014.44;5046567;28;20056;-80
2022/09/30 05:03:04;;;;;;;8.48;2.83;;;;;;;18.98;56.39;100058.13;5063723;28;20573;-81
2022/09/30 05:05:32;;;;;;;4.68;1.40;;;;;;;18.47;56.13;99967.22;5045445;28;20056;-81
2022/09/30 05:08:03;;;;;;;2.65;1.00;;;;;;;19.05;56.33;100060.81;5048356;28;20509;-80
2022/09/30 05:10:30;;;;;;;3.53;0.85;;;;;;;18.85;56.19;100039.25;5045701;28;20063;-81
2022/09/30 05:12:57;;;;;;;2.15;0.88;;;;;;;18.96;56.41;100072.81;5062479;28;20617;-82
2022/09/30 05:15:25;;;;;;;10.70;1.70;;;;;;;18.85;57.02;100060.78;5046251;28;20131;-81
2022/09/30 05:17:52;;;;;;;3.47;1.05;;;;;;;19.07;56.16;100079.44;5045891;28;20048;-79
2022/09/30 05:20:19;;;;;;;8.13;1.00;;;;;;;18.98;56.36;100076.97;5055252;28;20408;-81
2022/09/30 05:22:52;;;;;;;5.28;0.88;;;;;;;19.00;56.43;100096.41;5046209;28;20202;-80
2022/09/30 05:25:19;;;;;;;3.38;0.90;;;;;;;18.98;56.93;100101.16;5045564;28;20735;-79
2022/09/30 05:27:49;;;;;;;1.33;0.88;;;;;;;18.57;56.74;100029.47;5047519;28;20585;-80
2022/09/30 05:30:16;;;;;;;6.10;1.00;;;;;;;19.06;56.00;100113.59;5046506;28;20059;-80
2022/09/30 05:32:43;;;;;;;3.05;1.10;;;;;;;18.75;56.33;100077.28;5046036;28;20044;-81
2022/09/30 05:35:10;;;;;;;5.93;1.50;;;;;;;18.83;57.07;100105.88;5046389;28;20056;-80
2022/09/30 05:37:37;;;;;;;6.80;1.27;;;;;;;17.93;57.36;99960.81;5046476;28;20463;-81
2022/09/30 05:40:06;;;;;;;2.30;1.33;;;;;;;18.84;57.42;100120.97;5047555;28;20460;-79
2022/09/30 05:42:35;;;;;;;2.28;1.52;;;;;;;18.65;58.03;100098.34;5063817;28;20170;-80
2022/09/30 05:45:04;;;;;;;3.95;1.48;;;;;;;18.69;57.84;100104.97;5046389;28;20159;-81
2022/09/30 05:47:32;;;;;;;6.90;1.42;;;;;;;18.75;57.34;100130.22;5049796;28;20138;-80
2022/09/30 05:49:58;;;;;;;8.98;1.85;;;;;;;18.70;57.55;100130.00;5058469;28;20190;-80
2022/09/30 05:52:27;;;;;;;7.75;1.58;;;;;;;18.88;57.90;100170.63;5064017;28;20146;-80
2022/09/30 05:54:55;;;;;;;4.30;1.20;;;;;;;18.83;57.91;100153.44;5061829;28;20056;-80
2022/09/30 05:57:22;;;;;;;6.65;1.65;;;;;;;18.73;57.47;100129.59;5052133;28;20067;-80
2022/09/30 05:59:49;;;;;;;34.03;3.83;;;;;;;19.01;56.84;100186.00;5061036;28;20059;-80
2022/09/30 06:02:16;;;;;;;8.90;1.63;;;;;;;18.42;56.99;100101.34;5065942;28;20133;-80
2022/09/30 06:04:43;;;;;;;4.47;1.02;;;;;;;18.82;56.43;100149.94;5067108;28;20052;-79
2022/09/30 06:07:09;;;;;;;3.95;1.00;;;;;;;19.16;55.76;100205.50;5066343;28;20045;-80
2022/09/30 06:09:38;;;;;;;2.30;0.90;;;;;;;19.10;55.95;100208.16;5066175;28;20041;-78
2022/09/30 06:12:05;;;;;;;6.32;1.80;;;;;;;19.07;56.33;100208.56;5066479;28;20123;-78
2022/09/30 06:14:35;;;;;;;8.18;1.92;;;;;;;19.03;57.41;100213.53;5066203;28;20135;-81
2022/09/30 06:17:02;;;;;;;4.35;2.20;;;;;;;19.00;57.43;100192.41;5066233;28;20055;-79
2022/09/30 06:19:29;;;;;;;8.32;2.20;;;;;;;18.62;57.57;100146.28;5054329;28;20495;-78
2022/09/30 06:21:56;;;;;;;10.82;2.03;;;;;;;18.79;57.88;100201.44;4976702;28;20406;-79
2022/09/30 06:24:23;;;;;;;3.75;1.67;;;;;;;18.74;58.41;100199.31;5030763;28;20506;-81
2022/09/30 06:26:51;;;;;;;9.60;2.05;;;;;;;18.87;58.36;100225.47;5046582;28;20502;-78
2022/09/30 06:29:18;;;;;;;6.63;1.50;;;;;;;18.08;58.42;100103.03;5049740;28;20593;-79
2022/09/30 06:31:47;;;;;;;4.50;2.17;;;;;;;18.89;58.80;100244.91;5050248;28;20384;-77
2022/09/30 06:34:13;;;;;;;10.27;1.88;;;;;;;18.83;58.89;100244.88;5050751;28;20068;-75
2022/09/30 06:36:40;;;;;;;4.60;1.40;;;;;;;18.85;58.64;100250.88;5048676;28;20079;-77
2022/09/30 06:39:07;;;;;;;4.68;1.35;;;;;;;18.44;58.82;100187.97;5065630;28;20067;-77
2022/09/30 06:41:42;;;;;;;6.45;1.38;;;;;;;18.78;58.63;100234.72;5049395;28;20557;-77
2022/09/30 06:44:10;;;;;;;10.52;1.75;;;;;;;18.80;59.42;100262.25;5065840;28;20130;-77
2022/09/30 06:46:36;;;;;;;5.82;1.67;;;;;;;18.75;59.79;100265.50;5049007;28;20048;-77
2022/09/30 06:49:18;;;;;;;7.28;1.75;;;;;;;18.46;59.93;100236.16;5049469;28;20132;-78
2022/09/30 06:51:44;;;;;;;13.38;2.42;;;;;;;18.62;59.95;100235.00;5048096;28;20048;-79
2022/09/30 06:54:12;;;;;;;8.23;2.35;;;;;;;17.33;59.78;100012.44;5049280;28;20045;-77
2022/09/30 06:56:39;;;;;;;7.95;2.50;;;;;;;18.55;60.11;100232.28;4958543;28;20530;-78
2022/09/30 06:59:05;;;;;;;7.93;2.17;;;;;;;18.72;59.55;100246.25;5041593;28;20049;-80
2022/09/30 07:01:32;;;;;;;8.80;2.03;;;;;;;18.75;60.46;100262.81;5050693;28;20490;-79
2022/09/30 07:04:01;;;;;;;17.17;4.65;;;;;;;18.54;60.70;100244.91;5047987;28;20396;-82
2022/09/30 07:06:28;;;;;;;7.88;3.00;;;;;;;18.41;61.24;100220.63;5048146;28;20140;-77
2022/09/30 07:08:55;;;;;;;4.70;1.70;;;;;;;18.73;61.33;100274.78;5080781;28;20144;-80
2022/09/30 07:11:23;;;;;;;3.45;1.23;;;;;;;18.72;60.94;100270.44;5048260;28;20049;-80
2022/09/30 07:13:50;;;;;;;2.47;1.30;;;;;;;18.53;61.10;100235.16;5047807;28;20592;-79
2022/09/30 07:16:19;;;;;;;4.28;1.90;;;;;;;18.77;60.81;100262.66;5048144;28;20300;-80
2022/09/30 07:18:46;;;;;;;8.13;2.00;;;;;;;18.88;60.76;100280.91;5048308;28;20049;-79
2022/09/30 07:21:14;;;;;;;6.13;1.33;;;;;;;18.95;60.89;100292.53;5047776;28;20128;-79
2022/09/30 07:23:48;;;;;;;6.13;1.70;;;;;;;18.79;60.56;100276.72;5047519;28;20490;-79
2022/09/30 07:26:17;;;;;;;1.92;1.20;;;;;;;18.68;60.62;100259.25;5052540;28;20539;-78
2022/09/30 07:28:44;;;;;;;3.75;1.50;;;;;;;18.93;61.13;100305.38;5043718;28;20048;-80
2022/09/30 07:31:15;;;;;;;7.75;1.67;;;;;;;18.99;60.94;100295.66;5029368;28;20063;-78
2022/09/30 07:34:02;;;;;;;8.63;1.75;;;;;;;19.10;60.70;100295.09;5045119;28;20510;-76
2022/09/30 07:36:30;;;;;;;7.93;2.60;;;;;;;18.96;61.40;100299.56;5046487;28;20045;-77
2022/09/30 07:39:04;;;;;;;4.75;1.80;;;;;;;18.82;61.06;100276.31;5045968;28;20053;-79
2022/09/30 07:41:31;;;;;;;11.93;2.28;;;;;;;19.00;61.37;100317.00;5079962;28;20532;-78
2022/09/30 07:43:58;;;;;;;4.50;1.58;;;;;;;19.07;60.66;100313.50;5047166;28;20044;-79
2022/09/30 07:46:28;;;;;;;7.53;1.70;;;;;;;19.00;61.05;100318.81;5047578;28;20051;-77
2022/09/30 07:48:59;;;;;;;8.32;1.75;;;;;;;18.90;60.92;100294.16;5047224;28;20095;-81
2022/09/30 07:51:32;;;;;;;6.22;2.47;;;;;;;18.87;60.47;100290.00;5048100;28;20446;-80
2022/09/30 07:54:11;;;;;;;4.82;1.80;;;;;;;18.90;60.43;100321.88;5047527;28;20047;-79
2022/09/30 07:56:39;;;;;;;12.25;3.22;;;;;;;19.08;61.00;100356.34;5047293;28;20059;-79
2022/09/30 07:59:27;;;;;;;6.35;1.60;;;;;;;18.99;60.90;100361.03;5050982;28;20041;-79
2022/09/30 08:01:54;;;;;;;7.18;1.80;;;;;;;18.22;61.07;100226.69;5054383;28;20357;-80
2022/09/30 08:04:23;;;;;;;6.40;1.40;;;;;;;18.96;61.61;100358.75;5058664;28;20119;-79
2022/09/30 08:06:55;;;;;;;5.22;2.10;;;;;;;18.90;61.70;100351.47;5051791;28;20087;-78
2022/09/30 08:09:24;;;;;;;6.03;2.20;;;;;;;18.90;61.51;100354.16;5046813;28;20107;-80
2022/09/30 08:11:51;;;;;;;6.85;2.72;;;;;;;18.66;61.81;100316.94;5047266;28;20087;-81
2022/09/30 08:14:21;;;;;;;8.68;1.75;;;;;;;18.97;61.83;100371.16;5047753;28;20041;-79
2022/09/30 08:16:48;;;;;;;5.72;1.75;;;;;;;18.78;61.88;100351.16;5067620;28;20105;-80
2022/09/30 08:19:18;;;;;;;3.50;1.65;;;;;;;19.03;61.89;100384.84;5056496;28;20124;-79
2022/09/30 08:21:45;;;;;;;2.92;1.63;;;;;;;18.90;62.13;100347.94;5076455;28;20107;-79
2022/09/30 08:24:14;;;;;;;7.70;1.40;;;;;;;18.79;62.00;100309.81;5046821;28;20053;-79
2022/09/30 08:26:41;;;;;;;12.10;1.63;;;;;;;18.96;62.29;100331.03;5046699;28;20685;-78
2022/09/30 08:29:10;;;;;;;6.57;2.40;;;;;;;19.11;62.20;100358.63;5047026;28;20047;-79
2022/09/30 08:31:46;;;;;;;8.35;3.00;;;;;;;19.15;62.36;100372.50;5047020;28;20059;-78
2022/09/30 08:34:13;;;;;;;7.88;1.83;;;;;;;19.29;62.11;100374.25;5047223;28;20055;-80
2022/09/30 08:36:41;;;;;;;8.95;1.83;;;;;;;19.23;62.64;100379.63;5046707;28;20045;-79
2022/09/30 08:39:09;;;;;;;10.85;1.98;;;;;;;19.06;63.10;100377.22;5063867;28;20057;-79
2022/09/30 08:42:34;;;;;;;5.82;1.77;;;;;;;18.93;64.58;100377.97;5040343;28;20066;-80
2022/09/30 08:45:27;;;;;;;13.00;2.83;;;;;;;19.08;63.89;100412.00;5014883;28;20048;-80
2022/09/30 08:48:04;;;;;;;5.35;2.33;;;;;;;19.14;64.34;100414.72;4981320;28;20457;-80
2022/09/30 08:51:00;;;;;;;6.45;2.60;;;;;;;19.09;64.62;100410.97;5035825;28;20049;-79
2022/09/30 08:53:40;;;;;;;6.43;2.03;;;;;;;19.19;65.10;100424.91;5027715;28;20133;-79
2022/09/30 08:56:11;;;;;;;5.47;2.17;;;;;;;18.67;65.66;100358.94;5030510;28;20144;-79
2022/09/30 08:58:42;;;;;;;10.52;2.60;;;;;;;18.98;66.43;100406.97;5046381;28;20052;-80
2022/09/30 09:01:15;;;;;;;12.98;2.40;;;;;;;18.90;66.41;100404.44;5039666;28;20041;-78
2022/09/30 09:03:44;;;;;;;4.40;2.08;;;;;;;19.15;66.30;100439.78;5045893;28;20067;-79
2022/09/30 09:06:22;;;;;;;12.00;1.90;;;;;;;19.16;67.74;100441.44;5029818;28;20088;-78
2022/09/30 09:09:15;;;;;;;5.53;2.33;;;;;;;19.19;67.82;100455.34;5046046;28;20186;-81
2022/09/30 09:12:21;;;;;;;12.52;3.67;;;;;;;19.11;68.88;100446.59;5047700;28;20144;-79
2022/09/30 09:15:06;;;;;;;5.03;2.95;;;;;;;19.08;68.09;100445.13;5046264;28;20160;-79
2022/09/30 09:17:39;;;;;;;9.70;3.72;;;;;;;19.18;68.25;100463.63;5046682;28;20128;-79
2022/09/30 09:20:14;;;;;;;8.95;3.22;;;;;;;19.15;68.29;100470.22;5046094;28;20053;-78
2022/09/30 09:22:43;;;;;;;8.13;3.75;;;;;;;19.06;68.24;100449.88;5046484;28;20065;-79
2022/09/30 09:25:17;;;;;;;11.75;3.67;;;;;;;18.99;68.81;100439.06;5047101;28;20051;-79
2022/09/30 09:28:00;;;;;;;5.93;3.00;;;;;;;19.19;69.88;100481.41;5046352;28;20570;-80
2022/09/30 09:30:38;;;;;;;7.80;2.95;;;;;;;18.54;69.44;100384.69;5049072;28;20094;-80
2022/09/30 09:33:20;;;;;;;6.00;3.42;;;;;;;19.18;69.97;100483.28;5048342;28;20275;-81
2022/09/30 09:35:57;;;;;;;8.07;3.83;;;;;;;19.05;71.22;100474.28;5046957;28;20535;-80
2022/09/30 09:38:34;;;;;;;8.52;3.30;;;;;;;19.02;71.55;100463.91;5045954;28;20049;-79
2022/09/30 09:41:29;;;;;;;12.05;3.72;;;;;;;18.90;73.75;100450.16;5044562;28;20407;-80
2022/09/30 09:44:19;;;;;;;16.10;4.72;;;;;;;19.05;72.46;100461.66;5043453;28;20053;-81
2022/09/30 09:47:03;;;;;;;9.18;3.97;;;;;;;19.08;72.59;100460.41;5042432;28;20234;-81
2022/09/30 09:49:33;;;;;;;12.00;3.60;;;;;;;18.94;72.69;100454.13;5035787;28;20056;-79
2022/09/30 09:52:34;;;;;;;8.35;3.95;;;;;;;19.03;73.65;100461.03;5043567;28;20048;-79
2022/09/30 09:55:00;;;;;;;8.50;3.70;;;;;;;18.93;73.71;100464.06;5044011;28;20361;-79
2022/09/30 09:57:31;;;;;;;12.55;4.15;;;;;;;18.95;74.43;100470.06;5044969;28;20079;-79
2022/09/30 10:03:27;;;;;;;9.50;3.47;;;;;;;18.96;74.35;100462.84;5047801;28;20138;-80
2022/09/30 10:06:05;;;;;;;14.85;3.83;;;;;;;18.94;73.98;100446.88;5051158;28;20052;-81
2022/09/30 10:08:38;;;;;;;13.68;4.38;;;;;;;18.77;75.19;100440.13;5050248;28;20080;-81
2022/09/30 10:11:26;;;;;;;8.85;3.30;;;;;;;18.88;76.11;100461.09;5049465;28;20049;-81
2022/09/30 10:13:58;;;;;;;12.00;3.70;;;;;;;18.40;74.61;100377.53;5051431;28;20064;-80
2022/09/30 10:16:36;;;;;;;8.30;3.25;;;;;;;18.88;74.89;100453.03;5054130;28;20072;-80
2022/09/30 10:19:16;;;;;;;18.70;4.25;;;;;;;18.38;75.67;100394.88;5051418;28;20312;-79
2022/09/30 10:21:43;;;;;;;7.00;3.60;;;;;;;18.84;74.62;100475.97;5045256;28;20045;-79
2022/09/30 10:24:27;;;;;;;8.20;2.70;;;;;;;18.88;73.16;100482.59;5044727;28;20048;-82
2022/09/30 10:26:53;;;;;;;6.18;2.60;;;;;;;18.73;73.11;100476.44;5044567;28;20685;-78
2022/09/30 10:29:25;;;;;;;5.88;2.38;;;;;;;18.79;72.42;100503.44;5044795;28;20235;-79
2022/09/30 10:31:52;;;;;;;;;;;;;;;18.83;72.41;100495.81;5045598;28;20130;-81
2022/09/30 10:34:35;;;;;;;8.25;2.63;;;;;;;18.76;72.73;100498.47;5045353;28;19921;-78
2022/09/30 10:37:13;;;;;;;7.57;2.20;;;;;;;18.03;72.76;100395.53;5046365;28;20341;-79
2022/09/30 10:39:42;;;;;;;6.95;3.17;;;;;;;18.49;72.99;100474.97;5061785;28;20053;-80
2022/09/30 10:42:17;;;;;;;8.98;3.20;;;;;;;18.52;74.88;100513.06;5044975;28;20053;-80
2022/09/30 10:45:05;;;;;;;8.27;2.80;;;;;;;18.23;74.53;100437.91;5076611;28;20092;-81
2022/09/30 10:47:32;;;;;;;6.25;2.67;;;;;;;18.10;75.87;100417.09;5047350;28;20782;-80
2022/09/30 10:50:10;;;;;;;6.55;3.53;;;;;;;18.46;75.17;100476.19;5060680;28;20053;-86
2022/09/30 10:52:46;;;;;;;5.30;3.20;;;;;;;18.57;74.95;100499.88;5061674;28;20041;-80
2022/09/30 10:55:18;;;;;;;8.73;3.80;;;;;;;18.58;76.64;100512.28;5044697;28;20055;-82
2022/09/30 10:57:47;;;;;;;9.70;3.70;;;;;;;18.60;76.10;100511.28;5076981;28;20128;-79
2022/09/30 11:00:20;;;;;;;6.68;4.22;;;;;;;17.38;75.81;100321.25;5044170;28;20084;-83
2022/09/30 11:03:15;;;;;;;6.28;2.80;;;;;;;18.51;75.53;100489.06;5045851;28;20056;-80
2022/09/30 11:05:48;;;;;;;9.27;3.10;;;;;;;18.68;75.38;100511.16;5045244;28;20049;-82
2022/09/30 11:08:29;;;;;;;6.35;3.03;;;;;;;18.80;75.01;100509.66;5044897;28;20140;-81
2022/09/30 11:11:13;;;;;;;9.30;3.73;;;;;;;18.70;75.62;100492.97;5045744;28;20517;-79
2022/09/30 11:13:59;;;;;;;9.15;4.20;;;;;;;18.86;75.33;100508.91;5045459;28;20304;-80
2022/09/30 11:16:48;;;;;;;12.43;4.18;;;;;;;18.79;75.82;100490.00;5048295;28;20487;-76
2022/09/30 11:19:43;;;;;;;10.25;5.25;;;;;;;18.98;78.63;100510.03;5048670;28;20049;-82
2022/09/30 11:22:35;;;;;;;10.15;4.38;;;;;;;19.16;75.66;100504.16;5048600;28;20083;-79
2022/09/30 11:25:02;;;;;;;10.13;3.95;;;;;;;19.21;74.59;100501.72;5048701;28;20060;-80
2022/09/30 11:27:46;;;;;;;8.55;3.83;;;;;;;19.17;73.26;100500.44;5048112;28;20395;-80
2022/09/30 11:30:19;;;;;;;7.20;4.15;;;;;;;18.08;72.59;100338.56;5047437;28;20044;-78
2022/09/30 11:33:05;;;;;;;10.32;4.53;;;;;;;19.07;73.61;100493.75;5047250;28;20506;-81
2022/09/30 11:35:50;;;;;;;10.90;3.90;;;;;;;19.03;73.29;100495.16;5048262;28;20056;-79
2022/09/30 11:38:32;;;;;;;7.72;3.92;;;;;;;18.88;73.85;100490.69;5048465;28;20053;-79
2022/09/30 11:41:17;;;;;;;7.30;4.30;;;;;;;18.82;73.84;100488.78;5048465;28;20518;-79
2022/09/30 11:44:21;;;;;;;8.15;4.70;;;;;;;18.75;73.69;100482.47;5048531;28;20128;-78
2022/09/30 11:46:59;;;;;;;7.30;4.40;;;;;;;18.17;73.21;100385.78;5048143;28;20498;-79
2022/09/30 11:49:45;;;;;;;8.32;4.30;;;;;;;18.85;73.14;100506.38;5048067;28;20136;-79
2022/09/30 11:52:58;;;;;;;8.80;5.15;;;;;;;18.98;74.41;100501.09;5046476;28;20055;-80
2022/09/30 11:55:44;;;;;;;8.95;3.80;;;;;;;19.08;73.42;100516.91;5019802;28;20143;-79
2022/09/30 11:58:19;;;;;;;10.02;4.97;;;;;;;19.10;74.12;100529.19;5046119;28;20052;-80
2022/09/30 12:01:13;;;;;;;7.82;4.22;;;;;;;19.02;74.67;100533.84;5046356;28;20064;-80
2022/09/30 12:03:54;;;;;;;7.85;4.13;;;;;;;19.03;73.71;100546.25;5046601;28;20494;-78
2022/09/30 12:06:39;;;;;;;5.43;3.33;;;;;;;18.83;74.56;100527.25;5050035;28;20057;-80